sensor_id;sensor_type;location;lat;lon;timestamp;pressure;altitude;pressure_sealevel;temperature;humidity
39613;BME280;25303;48.896;13.342;2023-03-21T00:02:00;92952.13;;;7.01;68.87
39613;BME280;25303;48.896;13.342;2023-03-21T00:04:43;92952.28;;;6.99;69.02
39613;BME280;25303;48.896;13.342;2023-03-21T00:07:34;92945.53;;;6.98;69.12
39613;BME280;25303;48.896;13.342;2023-03-21T00:10:17;92952.38;;;6.98;69.05
39613;BME280;25303;48.896;13.342;2023-03-21T00:13:21;92946.06;;;7.02;69.22
39613;BME280;25303;48.896;13.342;2023-03-21T00:16:05;92943.50;;;7.02;69.31
39613;BME280;25303;48.896;13.342;2023-03-21T00:19:08;92946.06;;;6.92;69.78
39613;BME280;25303;48.896;13.342;2023-03-21T00:21:51;92944.31;;;6.93;69.75
39613;BME280;25303;48.896;13.342;2023-03-21T00:24:48;92944.31;;;6.93;69.93
39613;BME280;25303;48.896;13.342;2023-03-21T00:27:32;92939.88;;;6.95;70.14
39613;BME280;25303;48.896;13.342;2023-03-21T00:30:38;92937.31;;;6.95;70.05
39613;BME280;25303;48.896;13.342;2023-03-21T00:33:21;92930.44;;;6.95;70.22
39613;BME280;25303;48.896;13.342;2023-03-21T00:36:07;92927.72;;;6.97;70.28
39613;BME280;25303;48.896;13.342;2023-03-21T00:38:51;92932.06;;;6.96;70.17
39613;BME280;25303;48.896;13.342;2023-03-21T00:41:34;92934.75;;;6.95;70.05
39613;BME280;25303;48.896;13.342;2023-03-21T00:44:23;92928.97;;;6.93;69.89
39613;BME280;25303;48.896;13.342;2023-03-21T00:47:11;92935.13;;;6.90;70.05
39613;BME280;25303;48.896;13.342;2023-03-21T00:49:54;92932.84;;;6.87;70.13
39613;BME280;25303;48.896;13.342;2023-03-21T00:52:36;92929.75;;;6.83;70.32
39613;BME280;25303;48.896;13.342;2023-03-21T00:55:22;92926.50;;;6.81;70.32
39613;BME280;25303;48.896;13.342;2023-03-21T00:58:07;92925.72;;;6.81;70.28
39613;BME280;25303;48.896;13.342;2023-03-21T01:00:50;92927.31;;;6.82;70.45
39613;BME280;25303;48.896;13.342;2023-03-21T01:03:35;92924.63;;;6.83;70.42
39613;BME280;25303;48.896;13.342;2023-03-21T01:06:25;92921.13;;;6.84;70.49
39613;BME280;25303;48.896;13.342;2023-03-21T01:09:12;92906.59;;;6.85;70.47
39613;BME280;25303;48.896;13.342;2023-03-21T01:11:56;92913.19;;;6.88;70.46
39613;BME280;25303;48.896;13.342;2023-03-21T01:14:39;92918.16;;;6.89;70.40
39613;BME280;25303;48.896;13.342;2023-03-21T01:17:22;92917.47;;;6.87;70.39
39613;BME280;25303;48.896;13.342;2023-03-21T01:20:08;92912.50;;;6.86;70.40
39613;BME280;25303;48.896;13.342;2023-03-21T01:22:51;92911.72;;;6.85;70.24
39613;BME280;25303;48.896;13.342;2023-03-21T01:25:34;92909.00;;;6.87;70.30
39613;BME280;25303;48.896;13.342;2023-03-21T01:28:18;92911.44;;;6.88;70.37
39613;BME280;25303;48.896;13.342;2023-03-21T01:31:02;92909.69;;;6.89;70.23
39613;BME280;25303;48.896;13.342;2023-03-21T01:33:45;92915.50;;;6.91;70.33
39613;BME280;25303;48.896;13.342;2023-03-21T01:36:31;92912.09;;;6.90;70.18
39613;BME280;25303;48.896;13.342;2023-03-21T01:39:20;92910.38;;;6.91;70.34
39613;BME280;25303;48.896;13.342;2023-03-21T01:42:04;92905.94;;;6.93;70.29
39613;BME280;25303;48.896;13.342;2023-03-21T01:44:56;92909.28;;;6.93;70.43
39613;BME280;25303;48.896;13.342;2023-03-21T01:47:48;92905.78;;;6.94;70.50
39613;BME280;25303;48.896;13.342;2023-03-21T01:50:36;92904.16;;;6.93;70.32
39613;BME280;25303;48.896;13.342;2023-03-21T01:53:38;92894.75;;;6.94;70.37
39613;BME280;25303;48.896;13.342;2023-03-21T01:56:26;92893.13;;;6.93;70.33
39613;BME280;25303;48.896;13.342;2023-03-21T01:59:20;92890.69;;;6.91;70.42
39613;BME280;25303;48.896;13.342;2023-03-21T02:02:33;92891.38;;;6.93;70.56
39613;BME280;25303;48.896;13.342;2023-03-21T02:05:50;92888.81;;;6.93;70.63
39613;BME280;25303;48.896;13.342;2023-03-21T02:08:36;92887.06;;;6.94;70.49
39613;BME280;25303;48.896;13.342;2023-03-21T02:11:26;92884.38;;;6.95;70.61
39613;BME280;25303;48.896;13.342;2023-03-21T02:14:13;92884.38;;;6.95;70.52
39613;BME280;25303;48.896;13.342;2023-03-21T02:17:19;92892.06;;;6.95;70.84
39613;BME280;25303;48.896;13.342;2023-03-21T02:20:46;92889.63;;;6.94;70.82
39613;BME280;25303;48.896;13.342;2023-03-21T02:23:55;92882.59;;;6.96;70.77
39613;BME280;25303;48.896;13.342;2023-03-21T02:26:55;92881.81;;;6.95;70.78
39613;BME280;25303;48.896;13.342;2023-03-21T02:30:28;92880.03;;;6.96;70.79
39613;BME280;25303;48.896;13.342;2023-03-21T02:37:03;92884.22;;;6.97;70.60
39613;BME280;25303;48.896;13.342;2023-03-21T02:39:55;92881.66;;;6.97;70.60
39613;BME280;25303;48.896;13.342;2023-03-21T02:42:47;92883.28;;;6.98;70.78
39613;BME280;25303;48.896;13.342;2023-03-21T02:45:49;92879.00;;;6.98;70.80
39613;BME280;25303;48.896;13.342;2023-03-21T02:48:34;92881.56;;;6.98;70.79
39613;BME280;25303;48.896;13.342;2023-03-21T02:51:33;92871.03;;;7.02;70.87
39613;BME280;25303;48.896;13.342;2023-03-21T02:54:20;92875.22;;;7.03;70.77
39613;BME280;25303;48.896;13.342;2023-03-21T02:57:23;92867.66;;;7.01;70.62
39613;BME280;25303;48.896;13.342;2023-03-21T03:00:23;92862.69;;;6.99;70.61
39613;BME280;25303;48.896;13.342;2023-03-21T03:03:08;92866.19;;;6.98;70.47
39613;BME280;25303;48.896;13.342;2023-03-21T03:06:03;92860.25;;;6.98;70.46
39613;BME280;25303;48.896;13.342;2023-03-21T03:09:02;92866.47;;;6.95;70.56
39613;BME280;25303;48.896;13.342;2023-03-21T03:11:50;92862.28;;;6.94;70.39
39613;BME280;25303;48.896;13.342;2023-03-21T03:14:46;92854.88;;;6.91;70.57
39613;BME280;25303;48.896;13.342;2023-03-21T03:17:49;92851.50;;;6.91;70.75
39613;BME280;25303;48.896;13.342;2023-03-21T03:20:40;92852.44;;;6.90;70.49
39613;BME280;25303;48.896;13.342;2023-03-21T03:23:30;92851.63;;;6.89;70.59
39613;BME280;25303;48.896;13.342;2023-03-21T03:26:20;92855.94;;;6.89;70.43
39613;BME280;25303;48.896;13.342;2023-03-21T03:29:08;92858.50;;;6.89;70.59
39613;BME280;25303;48.896;13.342;2023-03-21T03:31:56;92852.56;;;6.88;70.50
39613;BME280;25303;48.896;13.342;2023-03-21T03:34:49;92856.06;;;6.87;70.64
39613;BME280;25303;48.896;13.342;2023-03-21T03:37:41;92860.38;;;6.87;70.73
39613;BME280;25303;48.896;13.342;2023-03-21T03:40:27;92869.84;;;6.86;70.67
39613;BME280;25303;48.896;13.342;2023-03-21T03:43:33;92865.66;;;6.85;70.67
39613;BME280;25303;48.896;13.342;2023-03-21T03:46:24;92863.09;;;6.85;70.91
39613;BME280;25303;48.896;13.342;2023-03-21T03:49:12;92863.88;;;6.86;70.66
39613;BME280;25303;48.896;13.342;2023-03-21T03:52:00;92868.22;;;6.85;70.73
39613;BME280;25303;48.896;13.342;2023-03-21T03:54:50;92871.72;;;6.84;70.59
39613;BME280;25303;48.896;13.342;2023-03-21T03:57:37;92865.66;;;6.85;70.70
39613;BME280;25303;48.896;13.342;2023-03-21T04:00:20;92866.72;;;6.82;70.69
39613;BME280;25303;48.896;13.342;2023-03-21T04:03:06;92870.22;;;6.81;70.76
39613;BME280;25303;48.896;13.342;2023-03-21T04:05:50;92867.66;;;6.81;70.80
39613;BME280;25303;48.896;13.342;2023-03-21T04:08:34;92866.84;;;6.81;70.71
39613;BME280;25303;48.896;13.342;2023-03-21T04:11:18;92866.19;;;6.79;70.76
39613;BME280;25303;48.896;13.342;2023-03-21T04:14:05;92862.94;;;6.77;70.76
39613;BME280;25303;48.896;13.342;2023-03-21T04:16:50;92873.44;;;6.74;70.41
39613;BME280;25303;48.896;13.342;2023-03-21T04:19:35;92858.50;;;6.69;70.70
39613;BME280;25303;48.896;13.342;2023-03-21T04:22:18;92867.25;;;6.66;70.48
39613;BME280;25303;48.896;13.342;2023-03-21T04:25:01;92860.78;;;6.62;70.58
39613;BME280;25303;48.896;13.342;2023-03-21T04:27:46;92866.97;;;6.60;70.80
39613;BME280;25303;48.896;13.342;2023-03-21T04:30:45;92868.03;;;6.57;70.54
39613;BME280;25303;48.896;13.342;2023-03-21T04:33:51;92866.56;;;6.54;70.45
39613;BME280;25303;48.896;13.342;2023-03-21T04:36:37;92865.19;;;6.50;70.75
39613;BME280;25303;48.896;13.342;2023-03-21T04:39:23;92866.28;;;6.48;70.59
39613;BME280;25303;48.896;13.342;2023-03-21T04:42:07;92864.91;;;6.44;70.49
39613;BME280;25303;48.896;13.342;2023-03-21T04:44:50;92862.59;;;6.41;70.38
39613;BME280;25303;48.896;13.342;2023-03-21T04:47:33;92866.25;;;6.38;70.45
39613;BME280;25303;48.896;13.342;2023-03-21T04:50:16;92861.38;;;6.35;70.25
39613;BME280;25303;48.896;13.342;2023-03-21T04:53:00;92862.47;;;6.32;70.37
39613;BME280;25303;48.896;13.342;2023-03-21T04:55:43;92854.91;;;6.31;70.13
39613;BME280;25303;48.896;13.342;2023-03-21T04:58:26;92856.81;;;6.29;70.05
39613;BME280;25303;48.896;13.342;2023-03-21T05:01:11;92854.50;;;6.26;70.23
39613;BME280;25303;48.896;13.342;2023-03-21T05:03:57;92860.69;;;6.23;70.24
39613;BME280;25303;48.896;13.342;2023-03-21T05:06:40;92860.13;;;6.19;70.34
39613;BME280;25303;48.896;13.342;2023-03-21T05:09:25;92866.31;;;6.17;70.38
39613;BME280;25303;48.896;13.342;2023-03-21T05:12:08;92861.31;;;6.15;70.20
39613;BME280;25303;48.896;13.342;2023-03-21T05:14:52;92865.63;;;6.15;70.35
39613;BME280;25303;48.896;13.342;2023-03-21T05:17:34;92862.41;;;6.13;70.13
39613;BME280;25303;48.896;13.342;2023-03-21T05:20:17;92866.72;;;6.12;70.49
39613;BME280;25303;48.896;13.342;2023-03-21T05:23:00;92865.09;;;6.11;70.57
39613;BME280;25303;48.896;13.342;2023-03-21T05:25:45;92866.03;;;6.10;70.87
39613;BME280;25303;48.896;13.342;2023-03-21T05:28:37;92862.53;;;6.11;70.66
39613;BME280;25303;48.896;13.342;2023-03-21T05:31:21;92862.53;;;6.11;70.87
39613;BME280;25303;48.896;13.342;2023-03-21T05:34:12;92866.56;;;6.14;70.66
39613;BME280;25303;48.896;13.342;2023-03-21T05:36:57;92867.66;;;6.11;70.64
39613;BME280;25303;48.896;13.342;2023-03-21T05:39:50;92866.84;;;6.11;70.83
39613;BME280;25303;48.896;13.342;2023-03-21T05:42:42;92865.91;;;6.12;70.84
39613;BME280;25303;48.896;13.342;2023-03-21T05:45:30;92859.69;;;6.14;70.78
39613;BME280;25303;48.896;13.342;2023-03-21T05:48:14;92868.19;;;6.15;70.93
39613;BME280;25303;48.896;13.342;2023-03-21T05:51:17;92855.97;;;6.18;71.08
39613;BME280;25303;48.896;13.342;2023-03-21T05:54:00;92866.88;;;6.20;71.17
39613;BME280;25303;48.896;13.342;2023-03-21T05:56:43;92864.84;;;6.24;71.14
39613;BME280;25303;48.896;13.342;2023-03-21T05:59:35;92865.13;;;6.31;70.97
39613;BME280;25303;48.896;13.342;2023-03-21T06:02:18;92871.31;;;6.28;71.19
39613;BME280;25303;48.896;13.342;2023-03-21T06:05:03;92873.88;;;6.28;71.37
39613;BME280;25303;48.896;13.342;2023-03-21T06:07:47;92876.44;;;6.28;71.40
39613;BME280;25303;48.896;13.342;2023-03-21T06:10:30;92870.38;;;6.29;71.48
39613;BME280;25303;48.896;13.342;2023-03-21T06:13:16;92872.00;;;6.30;71.67
39613;BME280;25303;48.896;13.342;2023-03-21T06:16:00;92880.91;;;6.36;71.56
39613;BME280;25303;48.896;13.342;2023-03-21T06:18:46;92878.78;;;6.41;71.47
39613;BME280;25303;48.896;13.342;2023-03-21T06:21:50;92880.13;;;6.45;71.66
39613;BME280;25303;48.896;13.342;2023-03-21T06:24:33;92878.13;;;6.49;71.48
39613;BME280;25303;48.896;13.342;2023-03-21T06:27:16;92875.31;;;6.52;71.52
39613;BME280;25303;48.896;13.342;2023-03-21T06:30:06;92879.88;;;6.58;71.62
39613;BME280;25303;48.896;13.342;2023-03-21T06:32:57;92880.97;;;6.65;71.51
39613;BME280;25303;48.896;13.342;2023-03-21T06:35:40;92883.00;;;6.72;71.42
39613;BME280;25303;48.896;13.342;2023-03-21T06:38:24;92885.16;;;6.76;71.57
39613;BME280;25303;48.896;13.342;2023-03-21T06:41:07;92883.00;;;6.81;71.34
39613;BME280;25303;48.896;13.342;2023-03-21T06:43:55;92883.56;;;6.85;71.28
39613;BME280;25303;48.896;13.342;2023-03-21T06:46:38;92884.91;;;6.89;71.37
39613;BME280;25303;48.896;13.342;2023-03-21T06:49:24;92886.41;;;6.92;71.20
39613;BME280;25303;48.896;13.342;2023-03-21T06:52:10;92892.19;;;6.94;71.31
39613;BME280;25303;48.896;13.342;2023-03-21T06:54:54;92890.16;;;6.97;71.41
39613;BME280;25303;48.896;13.342;2023-03-21T06:57:37;92888.16;;;7.01;71.44
39613;BME280;25303;48.896;13.342;2023-03-21T07:00:21;92887.88;;;7.04;71.26
39613;BME280;25303;48.896;13.342;2023-03-21T07:03:05;92893.53;;;7.08;71.38
39613;BME280;25303;48.896;13.342;2023-03-21T07:05:49;92895.81;;;7.11;71.08
39613;BME280;25303;48.896;13.342;2023-03-21T07:08:32;92893.78;;;7.14;71.23
39613;BME280;25303;48.896;13.342;2023-03-21T07:11:17;92896.09;;;7.18;71.22
39613;BME280;25303;48.896;13.342;2023-03-21T07:14:02;92907.69;;;7.22;71.20
39613;BME280;25303;48.896;13.342;2023-03-21T07:16:46;92897.19;;;7.25;70.94
39613;BME280;25303;48.896;13.342;2023-03-21T07:19:29;92907.16;;;7.28;70.90
39613;BME280;25303;48.896;13.342;2023-03-21T07:22:14;92900.53;;;7.35;71.17
39613;BME280;25303;48.896;13.342;2023-03-21T07:24:57;92900.13;;;7.40;70.82
39613;BME280;25303;48.896;13.342;2023-03-21T07:27:51;92904.44;;;7.49;70.82
39613;BME280;25303;48.896;13.342;2023-03-21T07:30:35;92908.22;;;7.55;70.74
39613;BME280;25303;48.896;13.342;2023-03-21T07:33:18;92904.13;;;7.62;70.56
39613;BME280;25303;48.896;13.342;2023-03-21T07:36:01;92907.94;;;7.68;70.45
39613;BME280;25303;48.896;13.342;2023-03-21T07:38:46;92907.34;;;7.74;70.31
39613;BME280;25303;48.896;13.342;2023-03-21T07:41:34;92906.16;;;7.78;69.92
39613;BME280;25303;48.896;13.342;2023-03-21T07:44:37;92908.53;;;7.89;69.84
39613;BME280;25303;48.896;13.342;2023-03-21T07:47:20;92895.69;;;7.99;69.87
39613;BME280;25303;48.896;13.342;2023-03-21T07:50:03;92910.53;;;8.05;69.60
39613;BME280;25303;48.896;13.342;2023-03-21T07:52:47;92902.13;;;8.13;69.77
39613;BME280;25303;48.896;13.342;2023-03-21T07:55:31;92904.00;;;8.21;69.69
39613;BME280;25303;48.896;13.342;2023-03-21T07:58:15;92905.47;;;8.24;69.13
39613;BME280;25303;48.896;13.342;2023-03-21T08:00:58;92907.47;;;8.30;68.98
39613;BME280;25303;48.896;13.342;2023-03-21T08:03:42;92907.72;;;8.36;68.79
39613;BME280;25303;48.896;13.342;2023-03-21T08:06:26;92906.50;;;8.41;67.97
39613;BME280;25303;48.896;13.342;2023-03-21T08:09:09;92903.34;;;8.47;67.90
39613;BME280;25303;48.896;13.342;2023-03-21T08:11:53;92897.38;;;8.56;67.41
39613;BME280;25303;48.896;13.342;2023-03-21T08:14:37;92898.66;;;8.70;67.35
39613;BME280;25303;48.896;13.342;2023-03-21T08:17:20;92899.94;;;8.84;66.62
39613;BME280;25303;48.896;13.342;2023-03-21T08:20:03;92898.41;;;8.91;65.37
39613;BME280;25303;48.896;13.342;2023-03-21T08:22:49;92904.13;;;9.03;65.20
39613;BME280;25303;48.896;13.342;2023-03-21T08:25:32;92907.56;;;9.12;64.93
39613;BME280;25303;48.896;13.342;2023-03-21T08:28:16;92904.59;;;9.17;64.22
39613;BME280;25303;48.896;13.342;2023-03-21T08:30:59;92898.91;;;9.13;63.61
39613;BME280;25303;48.896;13.342;2023-03-21T08:33:42;92896.88;;;9.17;63.65
39613;BME280;25303;48.896;13.342;2023-03-21T08:36:25;92901.69;;;9.20;63.35
39613;BME280;25303;48.896;13.342;2023-03-21T08:39:08;92899.94;;;9.20;62.85
39613;BME280;25303;48.896;13.342;2023-03-21T08:41:51;92896.16;;;9.24;63.09
39613;BME280;25303;48.896;13.342;2023-03-21T08:44:35;92891.28;;;9.21;62.52
39613;BME280;25303;48.896;13.342;2023-03-21T08:47:19;92897.66;;;9.35;63.25
39613;BME280;25303;48.896;13.342;2023-03-21T08:50:04;92889.28;;;9.51;63.08
39613;BME280;25303;48.896;13.342;2023-03-21T08:52:48;92888.75;;;9.66;62.69
39613;BME280;25303;48.896;13.342;2023-03-21T08:55:31;92880.47;;;9.80;62.00
39613;BME280;25303;48.896;13.342;2023-03-21T08:58:15;92887.50;;;9.96;61.78
39613;BME280;25303;48.896;13.342;2023-03-21T09:01:00;92892.72;;;10.13;61.44
39613;BME280;25303;48.896;13.342;2023-03-21T09:03:43;92896.34;;;10.28;60.37
39613;BME280;25303;48.896;13.342;2023-03-21T09:06:26;92894.19;;;10.42;60.01
39613;BME280;25303;48.896;13.342;2023-03-21T09:09:11;92894.84;;;10.52;59.25
39613;BME280;25303;48.896;13.342;2023-03-21T09:11:54;92886.22;;;10.70;59.52
39613;BME280;25303;48.896;13.342;2023-03-21T09:14:37;92885.97;;;10.89;59.24
39613;BME280;25303;48.896;13.342;2023-03-21T09:17:21;92891.00;;;11.07;57.75
39613;BME280;25303;48.896;13.342;2023-03-21T09:20:04;92895.34;;;11.23;57.88
39613;BME280;25303;48.896;13.342;2023-03-21T09:22:51;92880.09;;;11.38;56.72
39613;BME280;25303;48.896;13.342;2023-03-21T09:25:34;92878.94;;;11.58;55.85
39613;BME280;25303;48.896;13.342;2023-03-21T09:28:18;92885.06;;;11.81;55.91
39613;BME280;25303;48.896;13.342;2023-03-21T09:31:01;92877.63;;;12.03;55.73
39613;BME280;25303;48.896;13.342;2023-03-21T09:33:46;92883.06;;;12.16;54.62
39613;BME280;25303;48.896;13.342;2023-03-21T09:36:29;92874.94;;;12.36;55.24
39613;BME280;25303;48.896;13.342;2023-03-21T09:39:15;92877.13;;;12.56;54.50
39613;BME280;25303;48.896;13.342;2023-03-21T09:42:11;92875.78;;;12.68;52.14
39613;BME280;25303;48.896;13.342;2023-03-21T09:45:06;92881.53;;;12.47;51.85
39613;BME280;25303;48.896;13.342;2023-03-21T09:47:51;92881.16;;;12.10;51.99
39613;BME280;25303;48.896;13.342;2023-03-21T09:50:39;92878.91;;;12.07;53.01
39613;BME280;25303;48.896;13.342;2023-03-21T09:53:25;92877.28;;;12.14;53.56
39613;BME280;25303;48.896;13.342;2023-03-21T09:56:11;92878.03;;;12.31;52.93
39613;BME280;25303;48.896;13.342;2023-03-21T09:58:55;92876.03;;;12.50;52.80
39613;BME280;25303;48.896;13.342;2023-03-21T10:01:41;92877.34;;;12.46;52.30
39613;BME280;25303;48.896;13.342;2023-03-21T10:04:26;92875.72;;;12.45;52.91
39613;BME280;25303;48.896;13.342;2023-03-21T10:07:12;92867.97;;;12.53;52.75
39613;BME280;25303;48.896;13.342;2023-03-21T10:09:59;92873.34;;;12.75;52.97
39613;BME280;25303;48.896;13.342;2023-03-21T10:12:45;92864.25;;;12.87;52.59
39613;BME280;25303;48.896;13.342;2023-03-21T10:15:29;92867.84;;;13.01;51.90
39613;BME280;25303;48.896;13.342;2023-03-21T10:18:18;92861.78;;;13.17;52.23
39613;BME280;25303;48.896;13.342;2023-03-21T10:21:04;92855.00;;;13.48;51.96
39613;BME280;25303;48.896;13.342;2023-03-21T10:23:49;92860.09;;;13.56;51.00
39613;BME280;25303;48.896;13.342;2023-03-21T10:26:32;92849.63;;;13.88;50.77
39613;BME280;25303;48.896;13.342;2023-03-21T10:29:18;92849.25;;;13.91;49.79
39613;BME280;25303;48.896;13.342;2023-03-21T10:32:06;92848.28;;;14.07;50.12
39613;BME280;25303;48.896;13.342;2023-03-21T10:34:52;92841.34;;;14.22;49.14
39613;BME280;25303;48.896;13.342;2023-03-21T10:37:41;92842.94;;;14.23;48.93
39613;BME280;25303;48.896;13.342;2023-03-21T10:40:26;92840.25;;;14.17;48.39
39613;BME280;25303;48.896;13.342;2023-03-21T10:43:35;92831.69;;;14.16;48.49
39613;BME280;25303;48.896;13.342;2023-03-21T10:46:20;92846.16;;;14.25;48.67
39613;BME280;25303;48.896;13.342;2023-03-21T10:49:06;92845.59;;;14.60;48.87
39613;BME280;25303;48.896;13.342;2023-03-21T10:51:51;92844.41;;;14.93;47.63
39613;BME280;25303;48.896;13.342;2023-03-21T10:54:35;92840.22;;;15.13;47.01
39613;BME280;25303;48.896;13.342;2023-03-21T10:57:21;92840.47;;;15.18;46.08
39613;BME280;25303;48.896;13.342;2023-03-21T11:00:07;92839.16;;;14.86;45.57
39613;BME280;25303;48.896;13.342;2023-03-21T11:02:59;92835.16;;;14.68;46.18
39613;BME280;25303;48.896;13.342;2023-03-21T11:05:42;92834.59;;;14.73;46.12
39613;BME280;25303;48.896;13.342;2023-03-21T11:08:25;92832.00;;;14.88;45.99
39613;BME280;25303;48.896;13.342;2023-03-21T11:11:09;92826.75;;;15.03;45.14
39613;BME280;25303;48.896;13.342;2023-03-21T11:13:59;92825.72;;;15.19;44.79
39613;BME280;25303;48.896;13.342;2023-03-21T11:16:47;92837.81;;;15.33;44.68
39613;BME280;25303;48.896;13.342;2023-03-21T11:19:31;92822.09;;;15.63;44.70
39613;BME280;25303;48.896;13.342;2023-03-21T11:22:15;92830.78;;;15.77;43.84
39613;BME280;25303;48.896;13.342;2023-03-21T11:25:00;92823.00;;;15.77;43.49
39613;BME280;25303;48.896;13.342;2023-03-21T11:27:46;92820.19;;;15.79;43.31
39613;BME280;25303;48.896;13.342;2023-03-21T11:30:31;92817.50;;;15.87;42.75
39613;BME280;25303;48.896;13.342;2023-03-21T11:33:16;92816.88;;;15.85;42.86
39613;BME280;25303;48.896;13.342;2023-03-21T11:36:01;92806.41;;;16.07;42.97
39613;BME280;25303;48.896;13.342;2023-03-21T11:38:48;92802.34;;;16.26;42.09
39613;BME280;25303;48.896;13.342;2023-03-21T11:41:32;92804.34;;;16.31;42.11
39613;BME280;25303;48.896;13.342;2023-03-21T11:44:28;92791.34;;;16.24;40.48
39613;BME280;25303;48.896;13.342;2023-03-21T11:47:12;92794.44;;;16.06;38.54
39613;BME280;25303;48.896;13.342;2023-03-21T11:49:55;92795.84;;;16.08;41.46
39613;BME280;25303;48.896;13.342;2023-03-21T11:52:58;92795.88;;;16.15;41.03
39613;BME280;25303;48.896;13.342;2023-03-21T11:55:51;92791.34;;;16.24;41.12
39613;BME280;25303;48.896;13.342;2023-03-21T11:58:45;92790.94;;;16.20;39.96
39613;BME280;25303;48.896;13.342;2023-03-21T12:01:37;92788.16;;;16.29;40.09
39613;BME280;25303;48.896;13.342;2023-03-21T12:04:39;92779.63;;;16.42;39.36
39613;BME280;25303;48.896;13.342;2023-03-21T12:07:33;92776.00;;;16.36;38.91
39613;BME280;25303;48.896;13.342;2023-03-21T12:10:30;92774.81;;;16.38;38.18
39613;BME280;25303;48.896;13.342;2023-03-21T12:13:27;92769.44;;;16.47;38.33
39613;BME280;25303;48.896;13.342;2023-03-21T12:16:25;92771.75;;;16.77;39.54
39613;BME280;25303;48.896;13.342;2023-03-21T12:22:29;92769.56;;;16.87;37.55
39613;BME280;25303;48.896;13.342;2023-03-21T12:25:18;92763.53;;;16.73;38.09
39613;BME280;25303;48.896;13.342;2023-03-21T12:28:13;92761.16;;;16.85;38.42
39613;BME280;25303;48.896;13.342;2023-03-21T12:31:20;92749.63;;;17.01;38.30
39613;BME280;25303;48.896;13.342;2023-03-21T12:34:17;92747.63;;;17.16;38.39
39613;BME280;25303;48.896;13.342;2023-03-21T12:37:11;92749.63;;;17.41;38.32
39613;BME280;25303;48.896;13.342;2023-03-21T12:40:07;92739.81;;;17.57;38.18
39613;BME280;25303;48.896;13.342;2023-03-21T12:46:02;92741.63;;;17.50;37.61
39613;BME280;25303;48.896;13.342;2023-03-21T12:48:49;92740.22;;;17.60;37.58
39613;BME280;25303;48.896;13.342;2023-03-21T12:51:36;92735.00;;;17.74;37.54
39613;BME280;25303;48.896;13.342;2023-03-21T12:54:25;92728.78;;;17.75;36.63
39613;BME280;25303;48.896;13.342;2023-03-21T12:57:14;92732.56;;;17.79;36.66
39613;BME280;25303;48.896;13.342;2023-03-21T13:00:04;92722.75;;;17.74;36.61
39613;BME280;25303;48.896;13.342;2023-03-21T13:02:57;92726.78;;;17.70;37.08
39613;BME280;25303;48.896;13.342;2023-03-21T13:05:44;92711.94;;;17.77;36.78
39613;BME280;25303;48.896;13.342;2023-03-21T13:08:32;92708.53;;;17.84;36.25
39613;BME280;25303;48.896;13.342;2023-03-21T13:11:19;92709.13;;;17.72;35.67
39613;BME280;25303;48.896;13.342;2023-03-21T13:14:07;92706.72;;;17.84;37.06
39613;BME280;25303;48.896;13.342;2023-03-21T13:16:56;92701.28;;;18.06;37.06
39613;BME280;25303;48.896;13.342;2023-03-21T13:19:47;92701.00;;;18.28;36.63
39613;BME280;25303;48.896;13.342;2023-03-21T13:22:32;92705.63;;;18.26;36.19
39613;BME280;25303;48.896;13.342;2023-03-21T13:25:17;92698.00;;;18.24;36.37
39613;BME280;25303;48.896;13.342;2023-03-21T13:28:03;92697.00;;;18.18;36.27
39613;BME280;25303;48.896;13.342;2023-03-21T13:30:48;92698.97;;;18.30;36.25
39613;BME280;25303;48.896;13.342;2023-03-21T13:33:32;92691.50;;;18.40;36.11
39613;BME280;25303;48.896;13.342;2023-03-21T13:36:17;92689.28;;;18.44;35.96
39613;BME280;25303;48.896;13.342;2023-03-21T13:39:04;92685.16;;;18.29;35.32
39613;BME280;25303;48.896;13.342;2023-03-21T13:41:48;92692.84;;;18.11;35.46
39613;BME280;25303;48.896;13.342;2023-03-21T13:44:39;92687.66;;;17.97;35.68
39613;BME280;25303;48.896;13.342;2023-03-21T13:47:34;92685.47;;;18.01;35.85
39613;BME280;25303;48.896;13.342;2023-03-21T13:50:23;92677.25;;;17.90;35.84
39613;BME280;25303;48.896;13.342;2023-03-21T13:53:22;92681.09;;;17.74;35.38
39613;BME280;25303;48.896;13.342;2023-03-21T13:56:21;92679.75;;;17.58;35.97
39613;BME280;25303;48.896;13.342;2023-03-21T13:59:09;92681.53;;;17.58;36.30
39613;BME280;25303;48.896;13.342;2023-03-21T14:01:57;92678.75;;;17.53;36.32
39613;BME280;25303;48.896;13.342;2023-03-21T14:04:42;92682.78;;;17.42;36.38
39613;BME280;25303;48.896;13.342;2023-03-21T14:07:48;92671.34;;;17.50;36.93
39613;BME280;25303;48.896;13.342;2023-03-21T14:10:38;92671.56;;;17.41;36.33
39613;BME280;25303;48.896;13.342;2023-03-21T14:13:24;92666.38;;;17.28;36.61
39613;BME280;25303;48.896;13.342;2023-03-21T14:16:11;92663.97;;;17.13;36.82
39613;BME280;25303;48.896;13.342;2023-03-21T14:18:58;92662.19;;;16.93;36.94
39613;BME280;25303;48.896;13.342;2023-03-21T14:21:49;92667.56;;;16.71;37.12
39613;BME280;25303;48.896;13.342;2023-03-21T14:24:34;92660.91;;;16.49;37.14
39613;BME280;25303;48.896;13.342;2023-03-21T14:27:18;92653.09;;;16.35;37.04
39613;BME280;25303;48.896;13.342;2023-03-21T14:30:03;92653.28;;;16.27;37.44
39613;BME280;25303;48.896;13.342;2023-03-21T14:32:46;92654.28;;;16.19;37.18
39613;BME280;25303;48.896;13.342;2023-03-21T14:35:31;92657.28;;;16.23;37.56
39613;BME280;25303;48.896;13.342;2023-03-21T14:38:21;92655.66;;;16.22;37.81
39613;BME280;25303;48.896;13.342;2023-03-21T14:41:18;92658.81;;;16.04;37.59
39613;BME280;25303;48.896;13.342;2023-03-21T14:44:13;92655.00;;;15.58;37.67
39613;BME280;25303;48.896;13.342;2023-03-21T14:46:59;92655.53;;;15.46;38.17
39613;BME280;25303;48.896;13.342;2023-03-21T14:49:43;92653.50;;;15.42;38.58
39613;BME280;25303;48.896;13.342;2023-03-21T14:52:29;92647.19;;;15.51;38.61
39613;BME280;25303;48.896;13.342;2023-03-21T14:55:15;92648.47;;;15.69;38.90